Informes METAR más Próximos

 

KSJC - San Jose, California, USA
Distancia desde EA1HNP Meteo: NE 14km
Actualización: 25/09/2021 13:53
Despejado
Despejado
 Viento del SE
Viento: SE 7 km/h
Temperatura: 14°C
Rocío: 12°C
Humedad: 88%
Barómetro: 1014.9 hPa
Nubes: Despejado
Visibilidad: 16 km
2021/09/25 11:53 KSJC 251153Z AUTO 14004KT 10SM CLR 14/12 A2997 RMK AO2 SLP148 T01390117 10167 20139 58003
KNUQ - Moffett Nas/Mtn, California, USA
Distancia desde EA1HNP Meteo: N 14km
Actualización: 22/08/2021 13:40
Pendiente
Cubierto
Cubierto
 Viento del SSE
Viento: SSE 11 km/h
Temperatura: 16°C
Rocío: 12°C
Humedad: 77%
Barómetro: 1009.8 hPa
Nubes: Cubierto
Visibilidad: 16 km
Detalle de nubes: Cubierto 549 m
2021/08/22 11:40 KNUQ 221140Z AUTO 16006KT 10SM OVC018 16/12 A2982 RMK AO2
 
KPAO - Palo Alto, California, USA
Distancia desde EA1HNP Meteo: NNO 23km
Actualización: 25/09/2021 01:47
Pendiente
Despejado
Despejado
 Viento del NO
Viento: NO 19 km/h
Temperatura: 22°C
Rocío: 14°C
Humedad: 61%
Barómetro: 1011.9 hPa
Nubes: Despejado
Visibilidad: 16 km
2021/09/24 23:47 KPAO 242347Z 32010KT 10SM SKC 22/14 A2988
KRHV - San Jose/Reid, California, USA
Distancia desde EA1HNP Meteo: ENE 19km
Actualización: 25/09/2021 06:47
Pendiente
Poco nuboso
Poco nuboso
 Viento del ONO
Viento: ONO 7 km/h
Temperatura: 18°C
Rocío: 14°C
Humedad: 78%
Barómetro: 1014.6 hPa
Nubes: Poco nuboso
Visibilidad: 16 km
Detalle de nubes: Poco nuboso 914 m
2021/09/25 04:47 KRHV 250447Z 30004KT 10SM FEW030 18/14 A2996 RMK LAST
 
KOAK - Oakland, California, USA
Distancia desde EA1HNP Meteo: NNO 50km
Actualización: 25/09/2021 13:53
Cubierto
Cubierto
 Viento del NNO
Viento: NNO 9 km/h
Temperatura: 16°C
Rocío: 13°C
Humedad: 83%
Barómetro: 1015.2 hPa
Nubes: Cubierto
Visibilidad: 16 km
Detalle de nubes: Poco nuboso 122 m
Cubierto 305 m
2021/09/25 11:53 KOAK 251153Z 34005KT 10SM FEW004 OVC010 16/13 A2998 RMK AO2 SLP150 T01610133 10161 20150 58003
KSQL - San Carlos Airpo, California, USA
Distancia desde EA1HNP Meteo: NO 34km
Actualización: 25/09/2021 14:35
Cubierto
Cubierto
 Viento del calm
Viento: Calma
Temperatura: 16°C
Rocío: 14°C
Humedad: 88%
Barómetro: 1015.2 hPa
Nubes: Cubierto
Visibilidad: 16 km
Detalle de nubes: Cubierto 305 m
2021/09/25 12:35 KSQL 251235Z AUTO 00000KT 10SM OVC010 16/14 A2998 RMK AO2
 
KSFO - San Francisco, California, USA
Distancia desde EA1HNP Meteo: NO 49km
Actualización: 25/09/2021 13:56
Muy nuboso
Muy nuboso
 Viento del O
Viento: O 7 km/h
Temperatura: 14°C
Rocío: 12°C
Humedad: 88%
Barómetro: 1014.9 hPa
Nubes: Muy nuboso
Visibilidad: 16 km
Detalle de nubes: Poco nuboso 183 m
Muy nuboso 274 m
2021/09/25 11:56 KSFO 251156Z 28004KT 10SM FEW006 BKN009 14/12 A2997 RMK AO2 SLP148 T01440122 10150 20139 58002
KE16 - San Martin, California, USA
Distancia desde EA1HNP Meteo: ESE 43km
Actualización: 25/09/2021 14:35
Cubierto
Cubierto
 Viento del calm
Viento: Calma
Temperatura: 14°C
Rocío: 13°C
Humedad: 94%
Barómetro: 1015.9 hPa
Nubes: Cubierto
Visibilidad: 11 km
Detalle de nubes: Cubierto 152 m
2021/09/25 12:35 KE16 251235Z AUTO 00000KT 7SM OVC005 14/13 A3000 RMK AO2 PWINO PNO
 
KWVI - Watsonville, California, USA
Distancia desde EA1HNP Meteo: SSE 44km
Actualización: 25/09/2021 13:53
Cubierto
Cubierto
 Viento del calm
Viento: Calma
Temperatura: 14°C
Rocío: 13°C
Humedad: 94%
Barómetro: 1014.9 hPa
Nubes: Cubierto
Visibilidad: 16 km
Detalle de nubes: Cubierto 152 m
2021/09/25 11:53 KWVI 251153Z AUTO 00000KT 10SM OVC005 14/13 A2997 RMK AO2 SLP149 T01440133 10156 20133 56013
KHAF - Half Moon Bay, California, USA
Distancia desde EA1HNP Meteo: ONO 50km
Actualización: 25/09/2021 14:35
Niebla, Cubierto
Niebla, Cubierto
 Viento del calm
Viento: Calma
Temperatura: 14°C
Rocío: 13°C
Humedad: 94%
Barómetro: 1014.9 hPa
Resumen: Niebla
Nubes: Cubierto
Visibilidad: 4 km
Detalle de nubes: Cubierto 91 m
2021/09/25 12:35 KHAF 251235Z AUTO 00000KT 2 1/2SM BR OVC003 14/13 A2997 RMK AO2 PWINO
 
KHWD - Hayward, California, USA
Distancia desde EA1HNP Meteo: N 44km
Actualización: 25/09/2021 13:54
Cubierto
Cubierto
 Viento del NNO
Viento: NNO 7 km/h
Temperatura: 15°C
Rocío: 13°C
Humedad: 88%
Barómetro: 1014.9 hPa
Nubes: Cubierto
Visibilidad: 14 km
Detalle de nubes: Cubierto 244 m
2021/09/25 11:54 KHWD 251154Z AUTO 33004KT 9SM OVC008 15/13 A2997 RMK AO2 SLP157 T01500128 10150 20139 58003
KLVK - Livermore, California, USA
Distancia desde EA1HNP Meteo: NNE 51km
Actualización: 25/09/2021 13:53
Despejado
Despejado
 Viento del NO
Viento: NO 9 km/h
Temperatura: 14°C
Rocío: 12°C
Humedad: 88%
Barómetro: 1014.6 hPa
Nubes: Despejado
Visibilidad: 16 km
2021/09/25 11:53 KLVK 251153Z AUTO 31005KT 10SM CLR 14/12 A2996 RMK AO2 SLP141 T01440122 10194 20144 50001